Airfield :
LOGIN :

Register | Disclaimer

   EN    FR    IT 

 










Legend :    VFR   Marginal VFR   IFR   Intensive IFR   Very Intensive IFR
Visi :
Ceiling :
>= 8 km
>= 3000ft
5 to 8 km
1000 to 3000 ft
1500m to 5 km
500 to 1000 ft
800 to 1500m
200 to 500 ft
< 800m
< 200 ft
Symbols :   Thunderstorms  Fog  Heavy snow  Heavy precipitations  Wind > 20 kt
SIGMETs :     Misc.  Thunderstorms  Icing  Turbulence  Mountain Waves  Volcanic Ashes







- Airport Elevation : 1411 ft
- IATA code : SZG


LOWS - Salzburg

CURRENT METAR :
  • 180650Z 16007KT 9999 FEW045 BKN065 M01/M04 Q1023 NOSIG

EXPIRED METARs :
  • 180620Z 16005KT 9999 FEW045 BKN065 M01/M04 Q1023 NOSIG
  • 180550Z 19003KT 160V220 9999 FEW045 BKN065 M02/M04 Q1023 NOSIG
  • 180520Z 19003KT 150V210 9999 FEW045 BKN065 M02/M04 Q1023 NOSIG
  • 180450Z 16004KT 9999 FEW040 BKN070 M02/M04 Q1023 NOSIG
  • 180420Z AUTO 17004KT 150V240 9999 FEW042 SCT060 BKN070 M01/M04 Q1023

TAF TAF LOWS
Valid from the 18 at 06:00 until the 19 at 06:00 UTC


180515Z 1806/1906 15005KT 9999 FEW050 BKN060 TX02/1813Z TNM03/1903Z
BECMG 1808/1810 SCT060
TEMPO 1811/1816 03005KT
No reported NOTAMs for that airfield.



MET'MAP, your aeronautical weather chart ! - Copyright ORBIFLY December 2007 - Disclaimer

ORBIFLY MET'MAP TEAM :

Programming & Development : Alexandra Zaïnal
Concept & Development : Baudouin d'Aumeries
Co-Development & Prog : Marc-Olivier Méhu
Technical & hardware support : Manuel Goepfert

Contact : metmap@orbifly.com




SOURCES & CREDITS :

   NOAA